sensor_id;sensor_type;location;lat;lon;timestamp;P1;durP1;ratioP1;P2;durP2;ratioP2
5245;SDS011;54412;51.206;6.888;2023-08-06T00:00:22;3.10;;;2.80;;
5245;SDS011;54412;51.206;6.888;2023-08-06T00:02:49;5.97;;;3.10;;
5245;SDS011;54412;51.206;6.888;2023-08-06T00:05:14;3.40;;;2.73;;
5245;SDS011;54412;51.206;6.888;2023-08-06T00:07:46;10.03;;;2.80;;
5245;SDS011;54412;51.206;6.888;2023-08-06T00:10:16;5.13;;;3.27;;
5245;SDS011;54412;51.206;6.888;2023-08-06T00:12:42;6.37;;;3.90;;
5245;SDS011;54412;51.206;6.888;2023-08-06T00:15:09;4.33;;;2.87;;
5245;SDS011;54412;51.206;6.888;2023-08-06T00:17:36;3.20;;;2.80;;
5245;SDS011;54412;51.206;6.888;2023-08-06T00:20:02;4.93;;;3.30;;
5245;SDS011;54412;51.206;6.888;2023-08-06T00:22:31;6.70;;;2.70;;
5245;SDS011;54412;51.206;6.888;2023-08-06T00:24:58;3.60;;;2.70;;
5245;SDS011;54412;51.206;6.888;2023-08-06T00:27:24;5.37;;;2.77;;
5245;SDS011;54412;51.206;6.888;2023-08-06T00:29:50;4.70;;;3.10;;
5245;SDS011;54412;51.206;6.888;2023-08-06T00:32:16;4.40;;;3.20;;
5245;SDS011;54412;51.206;6.888;2023-08-06T00:34:42;7.60;;;3.17;;
5245;SDS011;54412;51.206;6.888;2023-08-06T00:37:08;3.00;;;2.80;;
5245;SDS011;54412;51.206;6.888;2023-08-06T00:39:33;5.17;;;2.73;;
5245;SDS011;54412;51.206;6.888;2023-08-06T00:41:59;7.70;;;2.90;;
5245;SDS011;54412;51.206;6.888;2023-08-06T00:44:25;3.73;;;3.20;;
5245;SDS011;54412;51.206;6.888;2023-08-06T00:46:51;4.30;;;2.93;;
5245;SDS011;54412;51.206;6.888;2023-08-06T00:49:16;4.47;;;3.00;;
5245;SDS011;54412;51.206;6.888;2023-08-06T00:51:42;2.90;;;2.70;;
5245;SDS011;54412;51.206;6.888;2023-08-06T00:54:08;4.07;;;2.73;;
5245;SDS011;54412;51.206;6.888;2023-08-06T00:56:35;4.53;;;2.70;;
5245;SDS011;54412;51.206;6.888;2023-08-06T00:59:01;4.37;;;2.67;;
5245;SDS011;54412;51.206;6.888;2023-08-06T01:01:31;3.17;;;2.47;;
5245;SDS011;54412;51.206;6.888;2023-08-06T01:03:57;3.07;;;2.37;;
5245;SDS011;54412;51.206;6.888;2023-08-06T01:06:45;4.93;;;3.00;;
5245;SDS011;54412;51.206;6.888;2023-08-06T01:15:38;3.40;;;3.00;;
5245;SDS011;54412;51.206;6.888;2023-08-06T01:18:11;5.60;;;2.97;;
5245;SDS011;54412;51.206;6.888;2023-08-06T01:20:37;5.87;;;3.00;;
5245;SDS011;54412;51.206;6.888;2023-08-06T01:23:03;4.03;;;2.50;;
5245;SDS011;54412;51.206;6.888;2023-08-06T01:25:33;4.93;;;2.80;;
5245;SDS011;54412;51.206;6.888;2023-08-06T01:28:18;7.37;;;3.23;;
5245;SDS011;54412;51.206;6.888;2023-08-06T01:30:55;4.83;;;2.53;;
5245;SDS011;54412;51.206;6.888;2023-08-06T01:33:26;5.07;;;2.53;;
5245;SDS011;54412;51.206;6.888;2023-08-06T01:35:55;2.77;;;2.57;;
5245;SDS011;54412;51.206;6.888;2023-08-06T01:38:23;2.90;;;2.70;;
5245;SDS011;54412;51.206;6.888;2023-08-06T01:40:49;6.30;;;2.97;;
5245;SDS011;54412;51.206;6.888;2023-08-06T01:43:15;4.07;;;3.30;;
5245;SDS011;54412;51.206;6.888;2023-08-06T01:45:41;2.50;;;2.40;;
5245;SDS011;54412;51.206;6.888;2023-08-06T01:48:06;7.97;;;4.03;;
5245;SDS011;54412;51.206;6.888;2023-08-06T01:50:32;4.90;;;2.73;;
5245;SDS011;54412;51.206;6.888;2023-08-06T01:52:58;7.73;;;2.70;;
5245;SDS011;54412;51.206;6.888;2023-08-06T01:55:23;6.30;;;2.93;;
5245;SDS011;54412;51.206;6.888;2023-08-06T01:57:49;5.23;;;2.77;;
5245;SDS011;54412;51.206;6.888;2023-08-06T02:00:15;2.70;;;2.47;;
5245;SDS011;54412;51.206;6.888;2023-08-06T02:02:40;3.20;;;2.80;;
5245;SDS011;54412;51.206;6.888;2023-08-06T02:05:06;5.20;;;2.50;;
5245;SDS011;54412;51.206;6.888;2023-08-06T02:07:32;4.23;;;2.53;;
5245;SDS011;54412;51.206;6.888;2023-08-06T02:09:57;4.53;;;3.13;;
5245;SDS011;54412;51.206;6.888;2023-08-06T02:12:23;3.33;;;3.10;;
5245;SDS011;54412;51.206;6.888;2023-08-06T02:14:49;5.97;;;2.60;;
5245;SDS011;54412;51.206;6.888;2023-08-06T02:17:14;5.13;;;3.20;;
5245;SDS011;54412;51.206;6.888;2023-08-06T02:19:40;3.00;;;2.80;;
5245;SDS011;54412;51.206;6.888;2023-08-06T02:22:08;4.27;;;2.80;;
5245;SDS011;54412;51.206;6.888;2023-08-06T02:24:33;4.80;;;2.97;;
5245;SDS011;54412;51.206;6.888;2023-08-06T02:26:59;3.83;;;2.93;;
5245;SDS011;54412;51.206;6.888;2023-08-06T02:29:25;4.97;;;2.80;;
5245;SDS011;54412;51.206;6.888;2023-08-06T02:31:50;4.07;;;2.57;;
5245;SDS011;54412;51.206;6.888;2023-08-06T02:34:16;3.17;;;2.10;;
5245;SDS011;54412;51.206;6.888;2023-08-06T02:36:42;5.40;;;3.00;;
5245;SDS011;54412;51.206;6.888;2023-08-06T02:39:08;3.20;;;2.93;;
5245;SDS011;54412;51.206;6.888;2023-08-06T02:41:34;6.23;;;3.27;;
5245;SDS011;54412;51.206;6.888;2023-08-06T02:43:59;4.43;;;3.23;;
5245;SDS011;54412;51.206;6.888;2023-08-06T02:46:25;5.70;;;2.80;;
5245;SDS011;54412;51.206;6.888;2023-08-06T02:48:51;4.20;;;2.67;;
5245;SDS011;54412;51.206;6.888;2023-08-06T02:51:17;2.97;;;2.40;;
5245;SDS011;54412;51.206;6.888;2023-08-06T02:53:42;4.10;;;2.87;;
5245;SDS011;54412;51.206;6.888;2023-08-06T02:56:08;4.03;;;2.83;;
5245;SDS011;54412;51.206;6.888;2023-08-06T02:58:33;2.30;;;2.10;;
5245;SDS011;54412;51.206;6.888;2023-08-06T03:01:00;4.43;;;2.93;;
5245;SDS011;54412;51.206;6.888;2023-08-06T03:03:32;10.43;;;3.07;;
5245;SDS011;54412;51.206;6.888;2023-08-06T03:05:58;5.37;;;3.03;;
5245;SDS011;54412;51.206;6.888;2023-08-06T03:08:24;2.70;;;2.60;;
5245;SDS011;54412;51.206;6.888;2023-08-06T03:10:51;2.83;;;2.63;;
5245;SDS011;54412;51.206;6.888;2023-08-06T03:13:17;3.33;;;2.73;;
5245;SDS011;54412;51.206;6.888;2023-08-06T03:15:51;7.10;;;2.70;;
5245;SDS011;54412;51.206;6.888;2023-08-06T03:18:20;4.80;;;3.30;;
5245;SDS011;54412;51.206;6.888;2023-08-06T03:20:46;4.20;;;3.37;;
5245;SDS011;54412;51.206;6.888;2023-08-06T03:23:12;4.97;;;2.60;;
5245;SDS011;54412;51.206;6.888;2023-08-06T03:25:38;5.43;;;3.00;;
5245;SDS011;54412;51.206;6.888;2023-08-06T03:28:04;3.10;;;2.73;;
5245;SDS011;54412;51.206;6.888;2023-08-06T03:30:29;3.80;;;2.53;;
5245;SDS011;54412;51.206;6.888;2023-08-06T03:32:55;2.50;;;2.30;;
5245;SDS011;54412;51.206;6.888;2023-08-06T03:35:20;3.07;;;2.80;;
5245;SDS011;54412;51.206;6.888;2023-08-06T03:37:46;3.03;;;2.80;;
5245;SDS011;54412;51.206;6.888;2023-08-06T03:40:13;7.37;;;2.60;;
5245;SDS011;54412;51.206;6.888;2023-08-06T03:42:39;3.17;;;2.90;;
5245;SDS011;54412;51.206;6.888;2023-08-06T03:45:04;3.10;;;2.90;;
5245;SDS011;54412;51.206;6.888;2023-08-06T03:47:31;4.70;;;2.50;;
5245;SDS011;54412;51.206;6.888;2023-08-06T03:49:57;4.53;;;2.60;;
5245;SDS011;54412;51.206;6.888;2023-08-06T03:52:22;3.90;;;2.47;;
5245;SDS011;54412;51.206;6.888;2023-08-06T03:54:48;6.37;;;3.03;;
5245;SDS011;54412;51.206;6.888;2023-08-06T03:57:14;2.80;;;2.60;;
5245;SDS011;54412;51.206;6.888;2023-08-06T03:59:39;4.03;;;2.70;;
5245;SDS011;54412;51.206;6.888;2023-08-06T04:02:05;7.20;;;2.60;;
5245;SDS011;54412;51.206;6.888;2023-08-06T04:04:30;3.40;;;2.40;;
5245;SDS011;54412;51.206;6.888;2023-08-06T04:06:56;4.23;;;2.33;;
5245;SDS011;54412;51.206;6.888;2023-08-06T04:09:22;4.27;;;3.07;;
5245;SDS011;54412;51.206;6.888;2023-08-06T04:11:47;5.50;;;2.10;;
5245;SDS011;54412;51.206;6.888;2023-08-06T04:14:13;7.03;;;2.80;;
5245;SDS011;54412;51.206;6.888;2023-08-06T04:16:39;7.70;;;2.40;;
5245;SDS011;54412;51.206;6.888;2023-08-06T04:19:04;4.03;;;3.00;;
5245;SDS011;54412;51.206;6.888;2023-08-06T04:21:30;3.47;;;2.87;;
5245;SDS011;54412;51.206;6.888;2023-08-06T04:23:56;2.93;;;2.47;;
5245;SDS011;54412;51.206;6.888;2023-08-06T04:26:22;6.77;;;2.90;;
5245;SDS011;54412;51.206;6.888;2023-08-06T04:28:47;2.40;;;2.17;;
5245;SDS011;54412;51.206;6.888;2023-08-06T04:31:13;5.20;;;2.77;;
5245;SDS011;54412;51.206;6.888;2023-08-06T04:33:40;10.43;;;3.07;;
5245;SDS011;54412;51.206;6.888;2023-08-06T04:36:06;3.87;;;3.27;;
5245;SDS011;54412;51.206;6.888;2023-08-06T04:38:31;3.90;;;2.47;;
5245;SDS011;54412;51.206;6.888;2023-08-06T04:40:57;4.80;;;2.80;;
5245;SDS011;54412;51.206;6.888;2023-08-06T04:43:23;5.73;;;2.43;;
5245;SDS011;54412;51.206;6.888;2023-08-06T04:45:49;3.30;;;2.90;;
5245;SDS011;54412;51.206;6.888;2023-08-06T04:48:18;3.27;;;2.43;;
5245;SDS011;54412;51.206;6.888;2023-08-06T04:50:47;4.43;;;2.73;;
5245;SDS011;54412;51.206;6.888;2023-08-06T04:53:15;3.47;;;3.00;;
5245;SDS011;54412;51.206;6.888;2023-08-06T04:55:41;2.93;;;2.70;;
5245;SDS011;54412;51.206;6.888;2023-08-06T04:58:08;2.70;;;2.60;;
5245;SDS011;54412;51.206;6.888;2023-08-06T05:00:35;3.07;;;2.37;;
5245;SDS011;54412;51.206;6.888;2023-08-06T05:03:01;3.13;;;2.83;;
5245;SDS011;54412;51.206;6.888;2023-08-06T05:05:27;6.27;;;3.33;;
5245;SDS011;54412;51.206;6.888;2023-08-06T05:07:54;6.07;;;3.40;;
5245;SDS011;54412;51.206;6.888;2023-08-06T05:10:24;3.60;;;3.30;;
5245;SDS011;54412;51.206;6.888;2023-08-06T05:12:50;6.80;;;3.40;;
5245;SDS011;54412;51.206;6.888;2023-08-06T05:15:16;3.30;;;2.50;;
5245;SDS011;54412;51.206;6.888;2023-08-06T05:17:41;7.87;;;3.10;;
5245;SDS011;54412;51.206;6.888;2023-08-06T05:20:07;3.07;;;2.87;;
5245;SDS011;54412;51.206;6.888;2023-08-06T05:22:34;5.00;;;2.50;;
5245;SDS011;54412;51.206;6.888;2023-08-06T05:24:59;2.17;;;2.07;;
5245;SDS011;54412;51.206;6.888;2023-08-06T05:27:25;3.70;;;2.83;;
5245;SDS011;54412;51.206;6.888;2023-08-06T05:29:54;12.10;;;3.00;;
5245;SDS011;54412;51.206;6.888;2023-08-06T05:32:23;2.47;;;2.23;;
5245;SDS011;54412;51.206;6.888;2023-08-06T05:34:49;2.03;;;1.93;;
5245;SDS011;54412;51.206;6.888;2023-08-06T05:37:14;3.07;;;2.10;;
5245;SDS011;54412;51.206;6.888;2023-08-06T05:39:40;3.60;;;2.33;;
5245;SDS011;54412;51.206;6.888;2023-08-06T05:42:06;3.00;;;2.43;;
5245;SDS011;54412;51.206;6.888;2023-08-06T05:44:31;2.73;;;2.27;;
5245;SDS011;54412;51.206;6.888;2023-08-06T05:46:57;3.50;;;2.13;;
5245;SDS011;54412;51.206;6.888;2023-08-06T05:49:26;3.00;;;1.70;;
5245;SDS011;54412;51.206;6.888;2023-08-06T05:51:51;2.37;;;2.17;;
5245;SDS011;54412;51.206;6.888;2023-08-06T05:54:18;2.87;;;2.10;;
5245;SDS011;54412;51.206;6.888;2023-08-06T05:56:44;3.50;;;2.03;;
5245;SDS011;54412;51.206;6.888;2023-08-06T05:59:10;5.13;;;2.40;;
5245;SDS011;54412;51.206;6.888;2023-08-06T06:01:36;8.57;;;2.70;;
5245;SDS011;54412;51.206;6.888;2023-08-06T06:04:01;4.00;;;2.50;;
5245;SDS011;54412;51.206;6.888;2023-08-06T06:06:27;3.23;;;2.60;;
5245;SDS011;54412;51.206;6.888;2023-08-06T06:08:53;8.00;;;2.03;;
5245;SDS011;54412;51.206;6.888;2023-08-06T06:11:25;2.13;;;2.00;;
5245;SDS011;54412;51.206;6.888;2023-08-06T06:13:50;5.10;;;2.40;;
5245;SDS011;54412;51.206;6.888;2023-08-06T06:16:17;4.33;;;2.57;;
5245;SDS011;54412;51.206;6.888;2023-08-06T06:18:42;2.47;;;2.10;;
5245;SDS011;54412;51.206;6.888;2023-08-06T06:21:09;4.37;;;2.03;;
5245;SDS011;54412;51.206;6.888;2023-08-06T06:23:35;1.90;;;1.60;;
5245;SDS011;54412;51.206;6.888;2023-08-06T06:26:01;3.77;;;2.10;;
5245;SDS011;54412;51.206;6.888;2023-08-06T06:28:27;2.20;;;1.60;;
5245;SDS011;54412;51.206;6.888;2023-08-06T06:30:53;2.30;;;1.57;;
5245;SDS011;54412;51.206;6.888;2023-08-06T06:33:18;3.20;;;1.83;;
5245;SDS011;54412;51.206;6.888;2023-08-06T06:35:44;3.90;;;1.97;;
5245;SDS011;54412;51.206;6.888;2023-08-06T06:38:09;1.90;;;1.40;;
5245;SDS011;54412;51.206;6.888;2023-08-06T06:40:35;6.60;;;1.87;;
5245;SDS011;54412;51.206;6.888;2023-08-06T06:43:01;3.43;;;1.60;;
5245;SDS011;54412;51.206;6.888;2023-08-06T06:45:26;1.77;;;1.67;;
5245;SDS011;54412;51.206;6.888;2023-08-06T06:47:52;2.50;;;1.83;;
5245;SDS011;54412;51.206;6.888;2023-08-06T06:50:18;2.13;;;1.93;;
5245;SDS011;54412;51.206;6.888;2023-08-06T06:52:43;2.83;;;2.00;;
5245;SDS011;54412;51.206;6.888;2023-08-06T06:55:09;1.73;;;1.60;;
5245;SDS011;54412;51.206;6.888;2023-08-06T06:57:35;4.30;;;1.93;;
5245;SDS011;54412;51.206;6.888;2023-08-06T07:00:00;3.00;;;1.87;;
5245;SDS011;54412;51.206;6.888;2023-08-06T07:02:26;1.50;;;1.40;;
5245;SDS011;54412;51.206;6.888;2023-08-06T07:04:52;2.23;;;2.03;;
5245;SDS011;54412;51.206;6.888;2023-08-06T07:07:17;4.00;;;1.80;;
5245;SDS011;54412;51.206;6.888;2023-08-06T07:09:43;1.97;;;1.70;;
5245;SDS011;54412;51.206;6.888;2023-08-06T07:12:09;2.13;;;1.93;;
5245;SDS011;54412;51.206;6.888;2023-08-06T07:14:35;2.30;;;2.20;;
5245;SDS011;54412;51.206;6.888;2023-08-06T07:17:01;4.47;;;2.30;;
5245;SDS011;54412;51.206;6.888;2023-08-06T07:19:26;1.90;;;1.70;;
5245;SDS011;54412;51.206;6.888;2023-08-06T07:21:52;2.97;;;2.00;;
5245;SDS011;54412;51.206;6.888;2023-08-06T07:24:18;1.70;;;1.60;;
5245;SDS011;54412;51.206;6.888;2023-08-06T07:26:43;3.80;;;1.63;;
5245;SDS011;54412;51.206;6.888;2023-08-06T07:29:09;3.33;;;1.70;;
5245;SDS011;54412;51.206;6.888;2023-08-06T07:31:35;2.67;;;2.00;;
5245;SDS011;54412;51.206;6.888;2023-08-06T07:34:01;2.00;;;1.90;;
5245;SDS011;54412;51.206;6.888;2023-08-06T07:36:26;3.43;;;1.30;;
5245;SDS011;54412;51.206;6.888;2023-08-06T07:38:52;1.97;;;1.77;;
5245;SDS011;54412;51.206;6.888;2023-08-06T07:41:21;2.77;;;2.57;;
5245;SDS011;54412;51.206;6.888;2023-08-06T07:43:49;1.67;;;1.57;;
5245;SDS011;54412;51.206;6.888;2023-08-06T07:46:15;4.50;;;2.07;;
5245;SDS011;54412;51.206;6.888;2023-08-06T07:48:41;2.57;;;1.50;;
5245;SDS011;54412;51.206;6.888;2023-08-06T07:51:06;1.77;;;1.67;;
5245;SDS011;54412;51.206;6.888;2023-08-06T07:53:32;1.50;;;1.40;;
5245;SDS011;54412;51.206;6.888;2023-08-06T07:55:58;1.67;;;1.53;;
5245;SDS011;54412;51.206;6.888;2023-08-06T07:58:24;1.73;;;1.60;;
5245;SDS011;54412;51.206;6.888;2023-08-06T08:00:50;6.50;;;1.77;;
5245;SDS011;54412;51.206;6.888;2023-08-06T08:03:16;3.30;;;1.93;;
5245;SDS011;54412;51.206;6.888;2023-08-06T08:05:42;1.70;;;1.60;;
5245;SDS011;54412;51.206;6.888;2023-08-06T08:08:09;7.73;;;1.27;;
5245;SDS011;54412;51.206;6.888;2023-08-06T08:10:35;1.33;;;1.33;;
5245;SDS011;54412;51.206;6.888;2023-08-06T08:13:02;2.60;;;1.30;;
5245;SDS011;54412;51.206;6.888;2023-08-06T08:15:29;2.00;;;1.43;;
5245;SDS011;54412;51.206;6.888;2023-08-06T08:17:57;1.47;;;1.37;;
5245;SDS011;54412;51.206;6.888;2023-08-06T08:20:23;1.70;;;1.60;;
5245;SDS011;54412;51.206;6.888;2023-08-06T08:22:49;2.10;;;1.60;;
5245;SDS011;54412;51.206;6.888;2023-08-06T08:25:15;3.23;;;1.90;;
5245;SDS011;54412;51.206;6.888;2023-08-06T08:27:41;1.60;;;1.50;;
5245;SDS011;54412;51.206;6.888;2023-08-06T08:30:07;1.53;;;1.43;;
5245;SDS011;54412;51.206;6.888;2023-08-06T08:32:33;3.67;;;2.00;;
5245;SDS011;54412;51.206;6.888;2023-08-06T08:34:59;2.00;;;1.70;;
5245;SDS011;54412;51.206;6.888;2023-08-06T08:37:25;2.83;;;1.70;;
5245;SDS011;54412;51.206;6.888;2023-08-06T08:39:50;1.50;;;1.40;;
5245;SDS011;54412;51.206;6.888;2023-08-06T08:42:17;3.03;;;1.50;;
5245;SDS011;54412;51.206;6.888;2023-08-06T08:44:43;2.83;;;1.80;;
5245;SDS011;54412;51.206;6.888;2023-08-06T08:47:10;2.87;;;1.73;;
5245;SDS011;54412;51.206;6.888;2023-08-06T08:49:37;2.07;;;1.77;;
5245;SDS011;54412;51.206;6.888;2023-08-06T08:52:05;1.70;;;1.60;;
5245;SDS011;54412;51.206;6.888;2023-08-06T08:54:35;2.30;;;2.13;;
5245;SDS011;54412;51.206;6.888;2023-08-06T08:57:03;2.40;;;1.80;;
5245;SDS011;54412;51.206;6.888;2023-08-06T08:59:30;3.50;;;2.70;;
5245;SDS011;54412;51.206;6.888;2023-08-06T09:02:00;3.10;;;2.80;;
5245;SDS011;54412;51.206;6.888;2023-08-06T09:04:27;3.30;;;3.10;;
5245;SDS011;54412;51.206;6.888;2023-08-06T09:06:56;4.60;;;2.77;;
5245;SDS011;54412;51.206;6.888;2023-08-06T09:09:34;5.50;;;3.00;;
5245;SDS011;54412;51.206;6.888;2023-08-06T09:12:09;4.43;;;3.10;;
5245;SDS011;54412;51.206;6.888;2023-08-06T09:14:40;3.37;;;3.03;;
5245;SDS011;54412;51.206;6.888;2023-08-06T09:17:07;9.27;;;3.37;;
5245;SDS011;54412;51.206;6.888;2023-08-06T09:19:35;2.90;;;2.67;;
5245;SDS011;54412;51.206;6.888;2023-08-06T09:22:01;2.63;;;2.50;;
5245;SDS011;54412;51.206;6.888;2023-08-06T09:24:28;2.67;;;2.50;;
5245;SDS011;54412;51.206;6.888;2023-08-06T09:26:53;1.67;;;1.57;;
5245;SDS011;54412;51.206;6.888;2023-08-06T09:29:20;3.53;;;2.17;;
5245;SDS011;54412;51.206;6.888;2023-08-06T09:31:46;2.70;;;2.50;;
5245;SDS011;54412;51.206;6.888;2023-08-06T09:34:17;1.93;;;1.80;;
5245;SDS011;54412;51.206;6.888;2023-08-06T09:36:48;2.10;;;2.00;;
5245;SDS011;54412;51.206;6.888;2023-08-06T09:39:19;1.83;;;1.73;;
5245;SDS011;54412;51.206;6.888;2023-08-06T09:41:56;2.10;;;2.00;;
5245;SDS011;54412;51.206;6.888;2023-08-06T09:44:24;2.33;;;1.77;;
5245;SDS011;54412;51.206;6.888;2023-08-06T09:46:53;4.50;;;1.80;;
5245;SDS011;54412;51.206;6.888;2023-08-06T09:49:24;2.60;;;2.03;;
5245;SDS011;54412;51.206;6.888;2023-08-06T09:51:52;3.43;;;2.10;;
5245;SDS011;54412;51.206;6.888;2023-08-06T09:54:23;2.20;;;2.00;;
5245;SDS011;54412;51.206;6.888;2023-08-06T09:56:51;6.70;;;2.17;;
5245;SDS011;54412;51.206;6.888;2023-08-06T09:59:21;3.13;;;2.20;;
5245;SDS011;54412;51.206;6.888;2023-08-06T10:01:49;5.37;;;2.40;;
5245;SDS011;54412;51.206;6.888;2023-08-06T10:04:15;7.63;;;2.50;;
5245;SDS011;54412;51.206;6.888;2023-08-06T10:06:42;6.30;;;2.70;;
5245;SDS011;54412;51.206;6.888;2023-08-06T10:09:11;8.10;;;2.70;;
5245;SDS011;54412;51.206;6.888;2023-08-06T10:11:37;4.80;;;3.23;;
5245;SDS011;54412;51.206;6.888;2023-08-06T10:16:44;3.00;;;2.60;;
5245;SDS011;54412;51.206;6.888;2023-08-06T10:19:12;3.83;;;3.07;;
5245;SDS011;54412;51.206;6.888;2023-08-06T10:21:41;4.90;;;3.00;;
5245;SDS011;54412;51.206;6.888;2023-08-06T10:27:30;4.43;;;3.07;;
5245;SDS011;54412;51.206;6.888;2023-08-06T10:30:21;2.30;;;2.00;;
5245;SDS011;54412;51.206;6.888;2023-08-06T10:32:55;2.50;;;2.20;;
5245;SDS011;54412;51.206;6.888;2023-08-06T10:38:17;1.93;;;1.63;;
5245;SDS011;54412;51.206;6.888;2023-08-06T10:43:33;2.80;;;1.60;;
5245;SDS011;54412;51.206;6.888;2023-08-06T10:46:04;1.47;;;1.40;;
5245;SDS011;54412;51.206;6.888;2023-08-06T10:48:37;1.27;;;1.20;;
5245;SDS011;54412;51.206;6.888;2023-08-06T10:51:08;1.20;;;1.20;;
5245;SDS011;54412;51.206;6.888;2023-08-06T10:53:36;0.83;;;0.83;;
5245;SDS011;54412;51.206;6.888;2023-08-06T10:56:12;0.60;;;0.60;;
5245;SDS011;54412;51.206;6.888;2023-08-06T10:58:44;4.73;;;0.93;;
5245;SDS011;54412;51.206;6.888;2023-08-06T11:01:11;0.60;;;0.60;;
5245;SDS011;54412;51.206;6.888;2023-08-06T11:03:38;1.17;;;0.93;;
5245;SDS011;54412;51.206;6.888;2023-08-06T11:06:07;1.37;;;0.87;;
5245;SDS011;54412;51.206;6.888;2023-08-06T11:08:35;2.33;;;1.20;;
5245;SDS011;54412;51.206;6.888;2023-08-06T11:11:10;3.03;;;1.67;;
5245;SDS011;54412;51.206;6.888;2023-08-06T11:13:39;1.37;;;1.37;;
5245;SDS011;54412;51.206;6.888;2023-08-06T11:16:05;1.17;;;1.17;;
5245;SDS011;54412;51.206;6.888;2023-08-06T11:18:34;1.20;;;1.20;;
5245;SDS011;54412;51.206;6.888;2023-08-06T11:21:01;1.30;;;1.20;;
5245;SDS011;54412;51.206;6.888;2023-08-06T11:23:28;2.60;;;1.27;;
5245;SDS011;54412;51.206;6.888;2023-08-06T11:25:55;1.10;;;1.10;;
5245;SDS011;54412;51.206;6.888;2023-08-06T11:28:21;1.47;;;1.37;;
5245;SDS011;54412;51.206;6.888;2023-08-06T11:30:48;1.40;;;1.30;;
5245;SDS011;54412;51.206;6.888;2023-08-06T11:33:23;1.47;;;1.47;;
5245;SDS011;54412;51.206;6.888;2023-08-06T11:35:56;1.20;;;1.20;;
5245;SDS011;54412;51.206;6.888;2023-08-06T11:38:27;1.67;;;1.60;;
5245;SDS011;54412;51.206;6.888;2023-08-06T11:40:54;1.30;;;1.30;;
5245;SDS011;54412;51.206;6.888;2023-08-06T11:43:20;2.00;;;1.80;;
5245;SDS011;54412;51.206;6.888;2023-08-06T11:45:47;1.80;;;1.60;;
5245;SDS011;54412;51.206;6.888;2023-08-06T11:48:14;3.30;;;2.30;;
5245;SDS011;54412;51.206;6.888;2023-08-06T11:50:40;5.40;;;2.13;;
5245;SDS011;54412;51.206;6.888;2023-08-06T11:53:06;4.00;;;2.20;;
5245;SDS011;54412;51.206;6.888;2023-08-06T11:55:32;4.77;;;2.50;;
5245;SDS011;54412;51.206;6.888;2023-08-06T11:57:59;2.53;;;2.07;;
5245;SDS011;54412;51.206;6.888;2023-08-06T12:00:29;5.80;;;2.70;;
5245;SDS011;54412;51.206;6.888;2023-08-06T12:02:55;3.27;;;2.97;;
5245;SDS011;54412;51.206;6.888;2023-08-06T12:05:22;3.70;;;2.80;;
5245;SDS011;54412;51.206;6.888;2023-08-06T12:07:57;5.23;;;2.80;;
5245;SDS011;54412;51.206;6.888;2023-08-06T12:10:25;4.57;;;2.63;;
5245;SDS011;54412;51.206;6.888;2023-08-06T12:12:53;2.90;;;2.40;;
5245;SDS011;54412;51.206;6.888;2023-08-06T12:15:20;3.33;;;2.40;;
5245;SDS011;54412;51.206;6.888;2023-08-06T12:17:46;3.87;;;2.50;;
5245;SDS011;54412;51.206;6.888;2023-08-06T12:20:12;4.77;;;2.83;;
5245;SDS011;54412;51.206;6.888;2023-08-06T12:22:38;6.40;;;3.23;;
5245;SDS011;54412;51.206;6.888;2023-08-06T12:25:08;4.10;;;2.60;;
5245;SDS011;54412;51.206;6.888;2023-08-06T12:27:37;4.07;;;3.23;;
5245;SDS011;54412;51.206;6.888;2023-08-06T12:30:06;5.13;;;3.47;;
5245;SDS011;54412;51.206;6.888;2023-08-06T12:32:33;3.67;;;3.33;;
5245;SDS011;54412;51.206;6.888;2023-08-06T12:34:59;3.63;;;3.23;;
5245;SDS011;54412;51.206;6.888;2023-08-06T12:37:25;3.50;;;3.20;;
5245;SDS011;54412;51.206;6.888;2023-08-06T12:39:51;6.97;;;3.33;;
5245;SDS011;54412;51.206;6.888;2023-08-06T12:42:17;3.77;;;2.77;;
5245;SDS011;54412;51.206;6.888;2023-08-06T12:44:43;2.70;;;2.50;;
5245;SDS011;54412;51.206;6.888;2023-08-06T12:47:09;6.30;;;3.37;;
5245;SDS011;54412;51.206;6.888;2023-08-06T12:49:35;4.53;;;2.67;;
5245;SDS011;54412;51.206;6.888;2023-08-06T12:52:01;3.30;;;3.00;;
5245;SDS011;54412;51.206;6.888;2023-08-06T12:54:29;3.63;;;2.93;;
5245;SDS011;54412;51.206;6.888;2023-08-06T12:57:01;3.90;;;3.50;;
5245;SDS011;54412;51.206;6.888;2023-08-06T12:59:27;4.93;;;3.30;;
5245;SDS011;54412;51.206;6.888;2023-08-06T13:01:53;5.70;;;2.87;;
5245;SDS011;54412;51.206;6.888;2023-08-06T13:04:19;2.90;;;2.70;;
5245;SDS011;54412;51.206;6.888;2023-08-06T13:06:45;5.20;;;3.50;;
5245;SDS011;54412;51.206;6.888;2023-08-06T13:09:11;2.43;;;2.23;;
5245;SDS011;54412;51.206;6.888;2023-08-06T13:11:38;4.97;;;2.83;;
5245;SDS011;54412;51.206;6.888;2023-08-06T13:14:06;5.20;;;2.50;;
5245;SDS011;54412;51.206;6.888;2023-08-06T13:16:34;4.53;;;2.60;;
5245;SDS011;54412;51.206;6.888;2023-08-06T13:19:02;3.30;;;3.00;;
5245;SDS011;54412;51.206;6.888;2023-08-06T13:24:15;2.60;;;2.40;;
5245;SDS011;54412;51.206;6.888;2023-08-06T13:26:40;2.10;;;2.00;;
5245;SDS011;54412;51.206;6.888;2023-08-06T13:29:06;2.57;;;2.23;;
5245;SDS011;54412;51.206;6.888;2023-08-06T13:31:35;2.83;;;1.90;;
5245;SDS011;54412;51.206;6.888;2023-08-06T13:34:03;8.10;;;2.03;;
5245;SDS011;54412;51.206;6.888;2023-08-06T13:36:29;2.83;;;1.90;;
5245;SDS011;54412;51.206;6.888;2023-08-06T13:38:55;2.53;;;1.87;;
5245;SDS011;54412;51.206;6.888;2023-08-06T13:41:21;2.60;;;2.07;;
5245;SDS011;54412;51.206;6.888;2023-08-06T13:43:47;3.63;;;2.53;;
5245;SDS011;54412;51.206;6.888;2023-08-06T13:46:12;1.80;;;1.70;;
5245;SDS011;54412;51.206;6.888;2023-08-06T13:48:41;3.53;;;1.87;;
5245;SDS011;54412;51.206;6.888;2023-08-06T13:51:11;2.27;;;2.13;;
5245;SDS011;54412;51.206;6.888;2023-08-06T13:53:38;2.87;;;1.83;;
5245;SDS011;54412;51.206;6.888;2023-08-06T13:56:05;4.40;;;2.00;;
5245;SDS011;54412;51.206;6.888;2023-08-06T13:58:32;4.57;;;2.40;;
5245;SDS011;54412;51.206;6.888;2023-08-06T14:00:58;3.93;;;1.93;;
5245;SDS011;54412;51.206;6.888;2023-08-06T14:03:24;3.70;;;2.07;;
5245;SDS011;54412;51.206;6.888;2023-08-06T14:05:50;2.00;;;1.80;;
5245;SDS011;54412;51.206;6.888;2023-08-06T14:08:16;2.27;;;2.03;;
5245;SDS011;54412;51.206;6.888;2023-08-06T14:10:44;3.60;;;2.97;;
5245;SDS011;54412;51.206;6.888;2023-08-06T14:13:10;2.80;;;2.50;;
5245;SDS011;54412;51.206;6.888;2023-08-06T14:15:36;4.63;;;3.10;;
5245;SDS011;54412;51.206;6.888;2023-08-06T14:18:05;6.43;;;3.27;;
5245;SDS011;54412;51.206;6.888;2023-08-06T14:20:33;2.90;;;2.67;;
5245;SDS011;54412;51.206;6.888;2023-08-06T14:22:59;4.40;;;2.60;;
5245;SDS011;54412;51.206;6.888;2023-08-06T14:25:25;4.30;;;2.90;;
5245;SDS011;54412;51.206;6.888;2023-08-06T14:27:51;3.00;;;2.40;;
5245;SDS011;54412;51.206;6.888;2023-08-06T14:30:16;3.60;;;2.97;;
5245;SDS011;54412;51.206;6.888;2023-08-06T14:32:42;4.93;;;2.80;;
5245;SDS011;54412;51.206;6.888;2023-08-06T14:35:08;5.30;;;3.40;;
5245;SDS011;54412;51.206;6.888;2023-08-06T14:37:33;3.13;;;2.70;;
5245;SDS011;54412;51.206;6.888;2023-08-06T14:39:59;2.90;;;2.00;;
5245;SDS011;54412;51.206;6.888;2023-08-06T14:42:25;3.83;;;3.17;;
5245;SDS011;54412;51.206;6.888;2023-08-06T14:44:50;8.57;;;2.63;;
5245;SDS011;54412;51.206;6.888;2023-08-06T14:47:16;5.83;;;2.40;;
5245;SDS011;54412;51.206;6.888;2023-08-06T14:49:42;2.83;;;2.57;;
5245;SDS011;54412;51.206;6.888;2023-08-06T14:52:07;2.33;;;2.13;;
5245;SDS011;54412;51.206;6.888;2023-08-06T14:54:33;3.30;;;3.10;;
5245;SDS011;54412;51.206;6.888;2023-08-06T14:56:59;5.00;;;3.17;;
5245;SDS011;54412;51.206;6.888;2023-08-06T14:59:24;2.80;;;2.53;;
5245;SDS011;54412;51.206;6.888;2023-08-06T15:01:50;5.97;;;2.60;;
5245;SDS011;54412;51.206;6.888;2023-08-06T15:04:16;5.77;;;2.83;;
5245;SDS011;54412;51.206;6.888;2023-08-06T15:06:43;3.03;;;2.03;;
5245;SDS011;54412;51.206;6.888;2023-08-06T15:09:10;3.90;;;2.73;;
5245;SDS011;54412;51.206;6.888;2023-08-06T15:11:36;3.83;;;2.00;;
5245;SDS011;54412;51.206;6.888;2023-08-06T15:14:02;2.50;;;2.30;;
5245;SDS011;54412;51.206;6.888;2023-08-06T15:16:30;2.77;;;2.00;;
5245;SDS011;54412;51.206;6.888;2023-08-06T15:18:55;1.80;;;1.70;;